sensor_id;sensor_type;location;lat;lon;timestamp;P1;durP1;ratioP1;P2;durP2;ratioP2
17382;SDS011;8809;51.892;8.384;2022-10-16T00:01:04;1.98;;;1.60;;
17382;SDS011;8809;51.892;8.384;2022-10-16T00:03:33;1.60;;;1.50;;
17382;SDS011;8809;51.892;8.384;2022-10-16T00:06:01;1.45;;;1.35;;
17382;SDS011;8809;51.892;8.384;2022-10-16T00:08:28;1.50;;;1.40;;
17382;SDS011;8809;51.892;8.384;2022-10-16T00:10:59;1.92;;;1.70;;
17382;SDS011;8809;51.892;8.384;2022-10-16T00:13:28;1.60;;;1.50;;
17382;SDS011;8809;51.892;8.384;2022-10-16T00:15:56;2.08;;;1.50;;
17382;SDS011;8809;51.892;8.384;2022-10-16T00:18:25;1.70;;;1.60;;
17382;SDS011;8809;51.892;8.384;2022-10-16T00:20:52;1.38;;;1.25;;
17382;SDS011;8809;51.892;8.384;2022-10-16T00:23:20;1.60;;;1.35;;
17382;SDS011;8809;51.892;8.384;2022-10-16T00:25:54;1.60;;;1.50;;
17382;SDS011;8809;51.892;8.384;2022-10-16T00:28:22;1.60;;;1.50;;
17382;SDS011;8809;51.892;8.384;2022-10-16T00:30:51;2.83;;;1.90;;
17382;SDS011;8809;51.892;8.384;2022-10-16T00:33:18;2.25;;;1.77;;
17382;SDS011;8809;51.892;8.384;2022-10-16T00:35:45;2.13;;;1.92;;
17382;SDS011;8809;51.892;8.384;2022-10-16T00:38:13;3.50;;;1.80;;
17382;SDS011;8809;51.892;8.384;2022-10-16T00:40:40;2.10;;;1.85;;
17382;SDS011;8809;51.892;8.384;2022-10-16T00:43:11;2.05;;;1.85;;
17382;SDS011;8809;51.892;8.384;2022-10-16T00:45:40;1.40;;;1.25;;
17382;SDS011;8809;51.892;8.384;2022-10-16T00:48:10;2.10;;;1.90;;
17382;SDS011;8809;51.892;8.384;2022-10-16T00:50:40;1.88;;;1.67;;
17382;SDS011;8809;51.892;8.384;2022-10-16T00:53:09;2.45;;;1.80;;
17382;SDS011;8809;51.892;8.384;2022-10-16T00:55:37;1.85;;;1.48;;
17382;SDS011;8809;51.892;8.384;2022-10-16T00:58:04;1.85;;;1.70;;
17382;SDS011;8809;51.892;8.384;2022-10-16T01:00:31;2.08;;;1.45;;
17382;SDS011;8809;51.892;8.384;2022-10-16T01:02:59;1.67;;;1.58;;
17382;SDS011;8809;51.892;8.384;2022-10-16T01:05:30;2.20;;;1.60;;
17382;SDS011;8809;51.892;8.384;2022-10-16T01:08:05;2.00;;;1.77;;
17382;SDS011;8809;51.892;8.384;2022-10-16T01:10:40;1.70;;;1.60;;
17382;SDS011;8809;51.892;8.384;2022-10-16T01:13:12;2.05;;;1.60;;
17382;SDS011;8809;51.892;8.384;2022-10-16T01:15:48;1.90;;;1.70;;
17382;SDS011;8809;51.892;8.384;2022-10-16T01:18:21;1.63;;;1.48;;
17382;SDS011;8809;51.892;8.384;2022-10-16T01:20:58;2.00;;;1.35;;
17382;SDS011;8809;51.892;8.384;2022-10-16T01:23:35;2.05;;;1.63;;
17382;SDS011;8809;51.892;8.384;2022-10-16T01:26:11;2.55;;;1.90;;
17382;SDS011;8809;51.892;8.384;2022-10-16T01:28:49;2.20;;;1.80;;
17382;SDS011;8809;51.892;8.384;2022-10-16T01:31:21;2.40;;;1.88;;
17382;SDS011;8809;51.892;8.384;2022-10-16T01:33:54;2.17;;;1.60;;
17382;SDS011;8809;51.892;8.384;2022-10-16T01:36:29;2.22;;;1.80;;
17382;SDS011;8809;51.892;8.384;2022-10-16T01:39:01;3.03;;;1.73;;
17382;SDS011;8809;51.892;8.384;2022-10-16T01:41:30;2.83;;;1.90;;
17382;SDS011;8809;51.892;8.384;2022-10-16T01:44:03;2.00;;;1.80;;
17382;SDS011;8809;51.892;8.384;2022-10-16T01:46:35;2.03;;;1.73;;
17382;SDS011;8809;51.892;8.384;2022-10-16T01:49:05;2.08;;;1.73;;
17382;SDS011;8809;51.892;8.384;2022-10-16T01:51:34;2.13;;;1.83;;
17382;SDS011;8809;51.892;8.384;2022-10-16T01:54:04;1.85;;;1.75;;
17382;SDS011;8809;51.892;8.384;2022-10-16T01:56:34;2.13;;;1.92;;
17382;SDS011;8809;51.892;8.384;2022-10-16T01:59:06;2.65;;;2.15;;
17382;SDS011;8809;51.892;8.384;2022-10-16T02:01:38;2.15;;;1.95;;
17382;SDS011;8809;51.892;8.384;2022-10-16T02:04:08;2.53;;;2.05;;
17382;SDS011;8809;51.892;8.384;2022-10-16T02:06:39;1.95;;;1.73;;
17382;SDS011;8809;51.892;8.384;2022-10-16T02:09:06;2.00;;;1.80;;
17382;SDS011;8809;51.892;8.384;2022-10-16T02:11:33;2.10;;;1.90;;
17382;SDS011;8809;51.892;8.384;2022-10-16T02:14:00;2.35;;;1.70;;
17382;SDS011;8809;51.892;8.384;2022-10-16T02:16:38;3.05;;;2.05;;
17382;SDS011;8809;51.892;8.384;2022-10-16T02:19:11;1.90;;;1.80;;
17382;SDS011;8809;51.892;8.384;2022-10-16T02:21:40;1.70;;;1.60;;
17382;SDS011;8809;51.892;8.384;2022-10-16T02:24:12;2.05;;;1.80;;
17382;SDS011;8809;51.892;8.384;2022-10-16T02:26:45;1.63;;;1.52;;
17382;SDS011;8809;51.892;8.384;2022-10-16T02:29:20;1.65;;;1.42;;
17382;SDS011;8809;51.892;8.384;2022-10-16T02:31:55;1.70;;;1.60;;
17382;SDS011;8809;51.892;8.384;2022-10-16T02:34:26;1.70;;;1.60;;
17382;SDS011;8809;51.892;8.384;2022-10-16T02:36:55;1.70;;;1.60;;
17382;SDS011;8809;51.892;8.384;2022-10-16T02:39:24;2.60;;;1.70;;
17382;SDS011;8809;51.892;8.384;2022-10-16T02:41:53;2.05;;;1.70;;
17382;SDS011;8809;51.892;8.384;2022-10-16T02:44:20;1.55;;;1.20;;
17382;SDS011;8809;51.892;8.384;2022-10-16T02:46:47;1.17;;;1.08;;
17382;SDS011;8809;51.892;8.384;2022-10-16T02:49:15;1.70;;;1.60;;
17382;SDS011;8809;51.892;8.384;2022-10-16T02:51:43;1.40;;;1.30;;
17382;SDS011;8809;51.892;8.384;2022-10-16T02:54:13;1.42;;;1.23;;
17382;SDS011;8809;51.892;8.384;2022-10-16T02:56:40;1.70;;;1.33;;
17382;SDS011;8809;51.892;8.384;2022-10-16T02:59:07;1.73;;;1.50;;
17382;SDS011;8809;51.892;8.384;2022-10-16T03:01:34;1.40;;;1.30;;
17382;SDS011;8809;51.892;8.384;2022-10-16T03:04:01;1.33;;;1.23;;
17382;SDS011;8809;51.892;8.384;2022-10-16T03:06:29;1.30;;;1.20;;
17382;SDS011;8809;51.892;8.384;2022-10-16T03:08:56;1.55;;;1.30;;
17382;SDS011;8809;51.892;8.384;2022-10-16T03:11:23;1.23;;;1.10;;
17382;SDS011;8809;51.892;8.384;2022-10-16T03:13:50;1.20;;;1.10;;
17382;SDS011;8809;51.892;8.384;2022-10-16T03:16:17;2.08;;;1.58;;
17382;SDS011;8809;51.892;8.384;2022-10-16T03:18:47;2.20;;;2.00;;
17382;SDS011;8809;51.892;8.384;2022-10-16T03:21:15;2.10;;;1.90;;
17382;SDS011;8809;51.892;8.384;2022-10-16T03:23:43;2.17;;;1.80;;
17382;SDS011;8809;51.892;8.384;2022-10-16T03:26:10;3.08;;;2.47;;
17382;SDS011;8809;51.892;8.384;2022-10-16T03:28:37;1.52;;;1.42;;
17382;SDS011;8809;51.892;8.384;2022-10-16T03:31:04;1.92;;;1.73;;
17382;SDS011;8809;51.892;8.384;2022-10-16T03:33:31;2.00;;;1.67;;
17382;SDS011;8809;51.892;8.384;2022-10-16T03:35:58;1.55;;;1.45;;
17382;SDS011;8809;51.892;8.384;2022-10-16T03:38:25;2.03;;;1.48;;
17382;SDS011;8809;51.892;8.384;2022-10-16T03:40:53;1.60;;;1.50;;
17382;SDS011;8809;51.892;8.384;2022-10-16T03:43:20;1.60;;;1.50;;
17382;SDS011;8809;51.892;8.384;2022-10-16T03:45:49;1.52;;;1.30;;
17382;SDS011;8809;51.892;8.384;2022-10-16T03:48:16;2.00;;;1.40;;
17382;SDS011;8809;51.892;8.384;2022-10-16T03:50:43;1.70;;;1.58;;
17382;SDS011;8809;51.892;8.384;2022-10-16T03:53:11;2.58;;;1.73;;
17382;SDS011;8809;51.892;8.384;2022-10-16T03:55:38;1.60;;;1.50;;
17382;SDS011;8809;51.892;8.384;2022-10-16T03:58:09;2.22;;;1.60;;
17382;SDS011;8809;51.892;8.384;2022-10-16T04:00:39;2.08;;;1.40;;
17382;SDS011;8809;51.892;8.384;2022-10-16T04:03:07;1.60;;;1.50;;
17382;SDS011;8809;51.892;8.384;2022-10-16T04:05:34;1.90;;;1.60;;
17382;SDS011;8809;51.892;8.384;2022-10-16T04:08:01;1.52;;;1.42;;
17382;SDS011;8809;51.892;8.384;2022-10-16T04:10:28;1.55;;;1.40;;
17382;SDS011;8809;51.892;8.384;2022-10-16T04:12:55;1.42;;;1.33;;
17382;SDS011;8809;51.892;8.384;2022-10-16T04:15:24;1.80;;;1.40;;
17382;SDS011;8809;51.892;8.384;2022-10-16T04:17:51;1.65;;;1.38;;
17382;SDS011;8809;51.892;8.384;2022-10-16T04:20:19;1.40;;;1.30;;
17382;SDS011;8809;51.892;8.384;2022-10-16T04:22:46;1.50;;;1.40;;
17382;SDS011;8809;51.892;8.384;2022-10-16T04:25:13;2.17;;;1.58;;
17382;SDS011;8809;51.892;8.384;2022-10-16T04:27:43;1.50;;;1.40;;
17382;SDS011;8809;51.892;8.384;2022-10-16T04:30:10;1.65;;;1.55;;
17382;SDS011;8809;51.892;8.384;2022-10-16T04:32:38;1.50;;;1.40;;
17382;SDS011;8809;51.892;8.384;2022-10-16T04:35:06;1.58;;;1.42;;
17382;SDS011;8809;51.892;8.384;2022-10-16T04:37:33;1.45;;;1.13;;
17382;SDS011;8809;51.892;8.384;2022-10-16T04:40:03;1.50;;;1.17;;
17382;SDS011;8809;51.892;8.384;2022-10-16T04:42:30;1.40;;;1.30;;
17382;SDS011;8809;51.892;8.384;2022-10-16T04:44:58;1.30;;;1.20;;
17382;SDS011;8809;51.892;8.384;2022-10-16T04:47:25;1.73;;;1.20;;
17382;SDS011;8809;51.892;8.384;2022-10-16T04:49:54;1.40;;;1.30;;
17382;SDS011;8809;51.892;8.384;2022-10-16T04:52:22;1.50;;;1.10;;
17382;SDS011;8809;51.892;8.384;2022-10-16T04:54:50;2.10;;;1.25;;
17382;SDS011;8809;51.892;8.384;2022-10-16T04:57:16;1.52;;;1.38;;
17382;SDS011;8809;51.892;8.384;2022-10-16T04:59:43;1.20;;;1.08;;
17382;SDS011;8809;51.892;8.384;2022-10-16T05:02:10;1.10;;;1.00;;
17382;SDS011;8809;51.892;8.384;2022-10-16T05:04:37;1.13;;;0.98;;
17382;SDS011;8809;51.892;8.384;2022-10-16T05:07:06;1.00;;;0.90;;
17382;SDS011;8809;51.892;8.384;2022-10-16T05:09:33;1.45;;;1.35;;
17382;SDS011;8809;51.892;8.384;2022-10-16T05:12:00;1.60;;;1.27;;
17382;SDS011;8809;51.892;8.384;2022-10-16T05:14:29;1.40;;;1.10;;
17382;SDS011;8809;51.892;8.384;2022-10-16T05:16:56;1.30;;;1.20;;
17382;SDS011;8809;51.892;8.384;2022-10-16T05:19:23;1.30;;;1.20;;
17382;SDS011;8809;51.892;8.384;2022-10-16T05:21:50;1.10;;;1.00;;
17382;SDS011;8809;51.892;8.384;2022-10-16T05:24:19;0.80;;;0.80;;
17382;SDS011;8809;51.892;8.384;2022-10-16T05:26:46;1.05;;;0.90;;
17382;SDS011;8809;51.892;8.384;2022-10-16T05:29:13;1.23;;;1.10;;
17382;SDS011;8809;51.892;8.384;2022-10-16T05:31:40;1.05;;;0.95;;
17382;SDS011;8809;51.892;8.384;2022-10-16T05:34:07;1.48;;;1.38;;
17382;SDS011;8809;51.892;8.384;2022-10-16T05:36:34;2.53;;;1.20;;
17382;SDS011;8809;51.892;8.384;2022-10-16T05:39:02;1.10;;;1.00;;
17382;SDS011;8809;51.892;8.384;2022-10-16T05:41:31;1.20;;;1.10;;
17382;SDS011;8809;51.892;8.384;2022-10-16T05:43:58;1.38;;;1.27;;
17382;SDS011;8809;51.892;8.384;2022-10-16T05:46:25;1.10;;;0.90;;
17382;SDS011;8809;51.892;8.384;2022-10-16T05:48:52;1.05;;;0.90;;
17382;SDS011;8809;51.892;8.384;2022-10-16T05:51:19;1.38;;;1.00;;
17382;SDS011;8809;51.892;8.384;2022-10-16T05:53:47;1.30;;;1.20;;
17382;SDS011;8809;51.892;8.384;2022-10-16T05:56:14;1.50;;;1.00;;
17382;SDS011;8809;51.892;8.384;2022-10-16T05:58:42;0.90;;;0.90;;
17382;SDS011;8809;51.892;8.384;2022-10-16T06:01:10;1.10;;;1.00;;
17382;SDS011;8809;51.892;8.384;2022-10-16T06:03:39;1.15;;;1.05;;
17382;SDS011;8809;51.892;8.384;2022-10-16T06:06:09;1.90;;;1.10;;
17382;SDS011;8809;51.892;8.384;2022-10-16T06:08:37;1.08;;;0.98;;
17382;SDS011;8809;51.892;8.384;2022-10-16T06:11:05;1.00;;;0.90;;
17382;SDS011;8809;51.892;8.384;2022-10-16T06:13:33;1.42;;;1.20;;
17382;SDS011;8809;51.892;8.384;2022-10-16T06:16:02;1.30;;;1.20;;
17382;SDS011;8809;51.892;8.384;2022-10-16T06:18:30;1.40;;;1.00;;
17382;SDS011;8809;51.892;8.384;2022-10-16T06:20:58;1.70;;;1.42;;
17382;SDS011;8809;51.892;8.384;2022-10-16T06:23:25;1.38;;;1.27;;
17382;SDS011;8809;51.892;8.384;2022-10-16T06:25:54;1.40;;;1.30;;
17382;SDS011;8809;51.892;8.384;2022-10-16T06:28:31;1.80;;;1.35;;
17382;SDS011;8809;51.892;8.384;2022-10-16T06:30:58;1.15;;;1.05;;
17382;SDS011;8809;51.892;8.384;2022-10-16T06:33:27;1.30;;;1.20;;
17382;SDS011;8809;51.892;8.384;2022-10-16T06:35:59;1.63;;;1.52;;
17382;SDS011;8809;51.892;8.384;2022-10-16T06:38:27;1.73;;;1.50;;
17382;SDS011;8809;51.892;8.384;2022-10-16T06:40:55;2.70;;;1.48;;
17382;SDS011;8809;51.892;8.384;2022-10-16T06:43:22;1.45;;;1.20;;
17382;SDS011;8809;51.892;8.384;2022-10-16T06:45:52;1.75;;;1.65;;
17382;SDS011;8809;51.892;8.384;2022-10-16T06:48:20;1.63;;;1.52;;
17382;SDS011;8809;51.892;8.384;2022-10-16T06:50:58;2.20;;;1.40;;
17382;SDS011;8809;51.892;8.384;2022-10-16T06:53:27;1.65;;;1.45;;
17382;SDS011;8809;51.892;8.384;2022-10-16T06:55:56;1.40;;;1.30;;
17382;SDS011;8809;51.892;8.384;2022-10-16T06:58:23;2.55;;;1.38;;
17382;SDS011;8809;51.892;8.384;2022-10-16T07:00:54;1.50;;;1.25;;
17382;SDS011;8809;51.892;8.384;2022-10-16T07:03:22;1.63;;;1.23;;
17382;SDS011;8809;51.892;8.384;2022-10-16T07:05:49;1.42;;;1.33;;
17382;SDS011;8809;51.892;8.384;2022-10-16T07:08:18;1.40;;;1.30;;
17382;SDS011;8809;51.892;8.384;2022-10-16T07:10:45;1.30;;;1.20;;
17382;SDS011;8809;51.892;8.384;2022-10-16T07:13:12;1.23;;;1.10;;
17382;SDS011;8809;51.892;8.384;2022-10-16T07:15:39;1.95;;;1.30;;
17382;SDS011;8809;51.892;8.384;2022-10-16T07:18:07;1.60;;;1.20;;
17382;SDS011;8809;51.892;8.384;2022-10-16T07:20:35;1.52;;;1.42;;
17382;SDS011;8809;51.892;8.384;2022-10-16T07:23:03;1.55;;;1.40;;
17382;SDS011;8809;51.892;8.384;2022-10-16T07:25:31;1.95;;;1.30;;
17382;SDS011;8809;51.892;8.384;2022-10-16T07:27:58;1.33;;;1.20;;
17382;SDS011;8809;51.892;8.384;2022-10-16T07:30:25;3.05;;;1.73;;
17382;SDS011;8809;51.892;8.384;2022-10-16T07:32:52;1.50;;;1.40;;
17382;SDS011;8809;51.892;8.384;2022-10-16T07:35:19;1.40;;;1.10;;
17382;SDS011;8809;51.892;8.384;2022-10-16T07:37:46;1.85;;;1.30;;
17382;SDS011;8809;51.892;8.384;2022-10-16T07:40:13;1.25;;;1.13;;
17382;SDS011;8809;51.892;8.384;2022-10-16T07:42:42;1.30;;;1.20;;
17382;SDS011;8809;51.892;8.384;2022-10-16T07:45:09;1.40;;;1.30;;
17382;SDS011;8809;51.892;8.384;2022-10-16T07:47:37;1.75;;;1.60;;
17382;SDS011;8809;51.892;8.384;2022-10-16T07:50:04;1.88;;;1.58;;
17382;SDS011;8809;51.892;8.384;2022-10-16T07:56:37;2.75;;;1.70;;
17382;SDS011;8809;51.892;8.384;2022-10-16T07:59:05;1.63;;;1.48;;
17382;SDS011;8809;51.892;8.384;2022-10-16T08:01:33;2.28;;;1.48;;
17382;SDS011;8809;51.892;8.384;2022-10-16T08:04:00;1.83;;;1.50;;
17382;SDS011;8809;51.892;8.384;2022-10-16T08:06:27;3.67;;;1.75;;
17382;SDS011;8809;51.892;8.384;2022-10-16T08:08:54;1.42;;;1.33;;
17382;SDS011;8809;51.892;8.384;2022-10-16T08:11:22;1.73;;;1.42;;
17382;SDS011;8809;51.892;8.384;2022-10-16T08:13:49;1.70;;;1.20;;
17382;SDS011;8809;51.892;8.384;2022-10-16T08:16:18;1.30;;;1.20;;
17382;SDS011;8809;51.892;8.384;2022-10-16T08:18:45;1.98;;;1.50;;
17382;SDS011;8809;51.892;8.384;2022-10-16T08:21:13;1.75;;;1.50;;
17382;SDS011;8809;51.892;8.384;2022-10-16T08:23:41;1.77;;;1.30;;
17382;SDS011;8809;51.892;8.384;2022-10-16T08:26:09;3.35;;;1.85;;
17382;SDS011;8809;51.892;8.384;2022-10-16T08:28:38;1.83;;;1.30;;
17382;SDS011;8809;51.892;8.384;2022-10-16T08:31:07;2.17;;;1.45;;
17382;SDS011;8809;51.892;8.384;2022-10-16T08:33:37;2.58;;;1.45;;
17382;SDS011;8809;51.892;8.384;2022-10-16T08:36:04;1.80;;;1.20;;
17382;SDS011;8809;51.892;8.384;2022-10-16T08:38:32;2.55;;;1.40;;
17382;SDS011;8809;51.892;8.384;2022-10-16T08:41:01;3.45;;;1.40;;
17382;SDS011;8809;51.892;8.384;2022-10-16T08:44:01;1.67;;;1.33;;
17382;SDS011;8809;51.892;8.384;2022-10-16T08:46:48;3.20;;;1.35;;
17382;SDS011;8809;51.892;8.384;2022-10-16T08:49:27;5.45;;;1.48;;
17382;SDS011;8809;51.892;8.384;2022-10-16T08:51:55;1.27;;;1.17;;
17382;SDS011;8809;51.892;8.384;2022-10-16T08:54:26;1.73;;;1.30;;
17382;SDS011;8809;51.892;8.384;2022-10-16T08:57:01;1.73;;;1.27;;
17382;SDS011;8809;51.892;8.384;2022-10-16T08:59:35;2.20;;;1.48;;
17382;SDS011;8809;51.892;8.384;2022-10-16T09:02:02;2.25;;;1.15;;
17382;SDS011;8809;51.892;8.384;2022-10-16T09:04:53;3.75;;;1.50;;
17382;SDS011;8809;51.892;8.384;2022-10-16T09:07:35;2.35;;;1.20;;
17382;SDS011;8809;51.892;8.384;2022-10-16T09:10:15;1.95;;;1.45;;
17382;SDS011;8809;51.892;8.384;2022-10-16T09:12:55;2.60;;;1.23;;
17382;SDS011;8809;51.892;8.384;2022-10-16T09:15:29;4.00;;;1.38;;
17382;SDS011;8809;51.892;8.384;2022-10-16T09:18:03;1.98;;;1.30;;
17382;SDS011;8809;51.892;8.384;2022-10-16T09:20:44;3.50;;;1.30;;
17382;SDS011;8809;51.892;8.384;2022-10-16T09:23:17;1.33;;;0.85;;
17382;SDS011;8809;51.892;8.384;2022-10-16T09:25:46;1.40;;;1.02;;
17382;SDS011;8809;51.892;8.384;2022-10-16T09:28:15;1.15;;;1.05;;
17382;SDS011;8809;51.892;8.384;2022-10-16T09:30:43;1.35;;;1.10;;
17382;SDS011;8809;51.892;8.384;2022-10-16T09:33:11;3.55;;;1.30;;
17382;SDS011;8809;51.892;8.384;2022-10-16T09:35:40;2.63;;;1.40;;
17382;SDS011;8809;51.892;8.384;2022-10-16T09:38:10;1.20;;;1.05;;
17382;SDS011;8809;51.892;8.384;2022-10-16T09:40:48;2.58;;;0.80;;
17382;SDS011;8809;51.892;8.384;2022-10-16T09:43:19;5.18;;;1.00;;
17382;SDS011;8809;51.892;8.384;2022-10-16T09:45:59;2.42;;;0.80;;
17382;SDS011;8809;51.892;8.384;2022-10-16T09:48:28;1.90;;;0.80;;
17382;SDS011;8809;51.892;8.384;2022-10-16T09:51:01;1.85;;;0.90;;
17382;SDS011;8809;51.892;8.384;2022-10-16T09:53:41;1.95;;;0.80;;
17382;SDS011;8809;51.892;8.384;2022-10-16T09:56:09;4.30;;;0.90;;
17382;SDS011;8809;51.892;8.384;2022-10-16T09:58:42;1.25;;;0.63;;
17382;SDS011;8809;51.892;8.384;2022-10-16T10:01:12;3.72;;;1.10;;
17382;SDS011;8809;51.892;8.384;2022-10-16T10:03:41;1.77;;;0.80;;
17382;SDS011;8809;51.892;8.384;2022-10-16T10:06:17;2.13;;;0.80;;
17382;SDS011;8809;51.892;8.384;2022-10-16T10:08:58;1.23;;;0.80;;
17382;SDS011;8809;51.892;8.384;2022-10-16T10:11:42;2.47;;;0.77;;
17382;SDS011;8809;51.892;8.384;2022-10-16T10:14:19;2.70;;;1.23;;
17382;SDS011;8809;51.892;8.384;2022-10-16T10:16:49;1.70;;;0.80;;
17382;SDS011;8809;51.892;8.384;2022-10-16T10:19:17;2.15;;;0.93;;
17382;SDS011;8809;51.892;8.384;2022-10-16T10:21:45;3.70;;;0.90;;
17382;SDS011;8809;51.892;8.384;2022-10-16T10:24:14;2.25;;;0.98;;
17382;SDS011;8809;51.892;8.384;2022-10-16T10:26:46;3.05;;;0.80;;
17382;SDS011;8809;51.892;8.384;2022-10-16T10:29:20;1.90;;;0.90;;
17382;SDS011;8809;51.892;8.384;2022-10-16T10:31:58;3.17;;;0.80;;
17382;SDS011;8809;51.892;8.384;2022-10-16T10:34:38;1.45;;;0.80;;
17382;SDS011;8809;51.892;8.384;2022-10-16T10:37:23;2.55;;;1.00;;
17382;SDS011;8809;51.892;8.384;2022-10-16T10:40:11;1.27;;;0.65;;
17382;SDS011;8809;51.892;8.384;2022-10-16T10:42:50;2.38;;;0.73;;
17382;SDS011;8809;51.892;8.384;2022-10-16T10:45:26;3.20;;;0.70;;
17382;SDS011;8809;51.892;8.384;2022-10-16T10:48:00;2.05;;;0.70;;
17382;SDS011;8809;51.892;8.384;2022-10-16T10:50:39;4.70;;;1.00;;
17382;SDS011;8809;51.892;8.384;2022-10-16T10:53:14;1.95;;;0.90;;
17382;SDS011;8809;51.892;8.384;2022-10-16T10:55:54;1.05;;;0.60;;
17382;SDS011;8809;51.892;8.384;2022-10-16T10:58:43;0.63;;;0.60;;
17382;SDS011;8809;51.892;8.384;2022-10-16T11:01:39;1.17;;;0.70;;
17382;SDS011;8809;51.892;8.384;2022-10-16T11:04:19;1.17;;;0.85;;
17382;SDS011;8809;51.892;8.384;2022-10-16T11:06:59;2.10;;;0.80;;
17382;SDS011;8809;51.892;8.384;2022-10-16T11:09:30;1.85;;;0.90;;
17382;SDS011;8809;51.892;8.384;2022-10-16T11:12:05;2.33;;;1.00;;
17382;SDS011;8809;51.892;8.384;2022-10-16T11:14:39;2.38;;;0.82;;
17382;SDS011;8809;51.892;8.384;2022-10-16T11:17:16;1.73;;;0.98;;
17382;SDS011;8809;51.892;8.384;2022-10-16T11:19:51;1.98;;;0.70;;
17382;SDS011;8809;51.892;8.384;2022-10-16T11:22:24;2.58;;;0.90;;
17382;SDS011;8809;51.892;8.384;2022-10-16T11:24:59;3.65;;;1.15;;
17382;SDS011;8809;51.892;8.384;2022-10-16T11:27:36;2.03;;;0.80;;
17382;SDS011;8809;51.892;8.384;2022-10-16T11:30:12;0.88;;;0.57;;
17382;SDS011;8809;51.892;8.384;2022-10-16T11:32:47;1.85;;;0.98;;
17382;SDS011;8809;51.892;8.384;2022-10-16T11:35:25;1.58;;;0.85;;
17382;SDS011;8809;51.892;8.384;2022-10-16T11:38:00;1.88;;;0.80;;
17382;SDS011;8809;51.892;8.384;2022-10-16T11:40:33;3.83;;;1.02;;
17382;SDS011;8809;51.892;8.384;2022-10-16T11:43:10;2.28;;;1.17;;
17382;SDS011;8809;51.892;8.384;2022-10-16T11:45:42;2.40;;;1.30;;
17382;SDS011;8809;51.892;8.384;2022-10-16T11:48:15;2.50;;;1.00;;
17382;SDS011;8809;51.892;8.384;2022-10-16T11:50:51;2.60;;;1.20;;
17382;SDS011;8809;51.892;8.384;2022-10-16T11:53:23;1.52;;;0.93;;
17382;SDS011;8809;51.892;8.384;2022-10-16T11:56:00;1.33;;;0.98;;
17382;SDS011;8809;51.892;8.384;2022-10-16T11:58:29;2.10;;;1.10;;
17382;SDS011;8809;51.892;8.384;2022-10-16T12:01:02;2.25;;;1.13;;
17382;SDS011;8809;51.892;8.384;2022-10-16T12:03:42;2.15;;;1.08;;
17382;SDS011;8809;51.892;8.384;2022-10-16T12:06:18;1.88;;;0.90;;
17382;SDS011;8809;51.892;8.384;2022-10-16T12:08:54;1.17;;;0.98;;
17382;SDS011;8809;51.892;8.384;2022-10-16T12:11:32;1.77;;;1.10;;
17382;SDS011;8809;51.892;8.384;2022-10-16T12:14:07;1.60;;;1.20;;
17382;SDS011;8809;51.892;8.384;2022-10-16T12:16:50;2.63;;;1.30;;
17382;SDS011;8809;51.892;8.384;2022-10-16T12:19:20;2.50;;;1.33;;
17382;SDS011;8809;51.892;8.384;2022-10-16T12:21:48;1.27;;;0.90;;
17382;SDS011;8809;51.892;8.384;2022-10-16T12:24:21;1.85;;;0.90;;
17382;SDS011;8809;51.892;8.384;2022-10-16T12:26:57;0.80;;;0.70;;
17382;SDS011;8809;51.892;8.384;2022-10-16T12:29:29;1.58;;;0.85;;
17382;SDS011;8809;51.892;8.384;2022-10-16T12:32:19;2.38;;;0.85;;
17382;SDS011;8809;51.892;8.384;2022-10-16T12:34:53;2.28;;;1.05;;
17382;SDS011;8809;51.892;8.384;2022-10-16T12:37:24;1.67;;;0.88;;
17382;SDS011;8809;51.892;8.384;2022-10-16T12:39:54;1.27;;;0.90;;
17382;SDS011;8809;51.892;8.384;2022-10-16T12:42:32;1.95;;;0.90;;
17382;SDS011;8809;51.892;8.384;2022-10-16T12:45:12;1.88;;;0.80;;
17382;SDS011;8809;51.892;8.384;2022-10-16T12:47:50;1.30;;;0.95;;
17382;SDS011;8809;51.892;8.384;2022-10-16T12:50:24;2.33;;;0.90;;
17382;SDS011;8809;51.892;8.384;2022-10-16T12:52:53;1.20;;;0.80;;
17382;SDS011;8809;51.892;8.384;2022-10-16T12:55:21;1.73;;;0.82;;
17382;SDS011;8809;51.892;8.384;2022-10-16T12:57:56;1.17;;;0.90;;
17382;SDS011;8809;51.892;8.384;2022-10-16T13:00:44;1.13;;;0.73;;
17382;SDS011;8809;51.892;8.384;2022-10-16T13:03:20;2.60;;;0.90;;
17382;SDS011;8809;51.892;8.384;2022-10-16T13:06:17;1.38;;;0.80;;
17382;SDS011;8809;51.892;8.384;2022-10-16T13:09:02;0.80;;;0.73;;
17382;SDS011;8809;51.892;8.384;2022-10-16T13:11:46;1.00;;;0.65;;
17382;SDS011;8809;51.892;8.384;2022-10-16T13:14:36;1.85;;;1.10;;
17382;SDS011;8809;51.892;8.384;2022-10-16T13:17:21;2.58;;;0.80;;
17382;SDS011;8809;51.892;8.384;2022-10-16T13:19:54;1.90;;;0.90;;
17382;SDS011;8809;51.892;8.384;2022-10-16T13:22:41;1.73;;;0.88;;
17382;SDS011;8809;51.892;8.384;2022-10-16T13:25:19;0.98;;;0.60;;
17382;SDS011;8809;51.892;8.384;2022-10-16T13:27:54;1.67;;;0.70;;
17382;SDS011;8809;51.892;8.384;2022-10-16T13:30:23;1.25;;;0.80;;
17382;SDS011;8809;51.892;8.384;2022-10-16T13:32:58;1.17;;;0.80;;
17382;SDS011;8809;51.892;8.384;2022-10-16T13:35:28;3.28;;;0.88;;
17382;SDS011;8809;51.892;8.384;2022-10-16T13:38:04;1.30;;;0.75;;
17382;SDS011;8809;51.892;8.384;2022-10-16T13:40:32;0.85;;;0.80;;
17382;SDS011;8809;51.892;8.384;2022-10-16T13:43:00;2.70;;;0.98;;
17382;SDS011;8809;51.892;8.384;2022-10-16T13:45:27;0.95;;;0.70;;
17382;SDS011;8809;51.892;8.384;2022-10-16T13:48:03;0.85;;;0.60;;
17382;SDS011;8809;51.892;8.384;2022-10-16T13:50:31;1.13;;;0.75;;
17382;SDS011;8809;51.892;8.384;2022-10-16T13:53:05;1.88;;;0.80;;
17382;SDS011;8809;51.892;8.384;2022-10-16T13:55:32;1.15;;;0.57;;
17382;SDS011;8809;51.892;8.384;2022-10-16T13:58:07;2.28;;;0.60;;
17382;SDS011;8809;51.892;8.384;2022-10-16T14:00:38;0.70;;;0.50;;
17382;SDS011;8809;51.892;8.384;2022-10-16T14:03:12;3.63;;;0.70;;
17382;SDS011;8809;51.892;8.384;2022-10-16T14:05:42;0.70;;;0.60;;
17382;SDS011;8809;51.892;8.384;2022-10-16T14:08:15;0.50;;;0.50;;
17382;SDS011;8809;51.892;8.384;2022-10-16T14:10:46;1.40;;;0.60;;
17382;SDS011;8809;51.892;8.384;2022-10-16T14:13:16;2.83;;;0.75;;
17382;SDS011;8809;51.892;8.384;2022-10-16T14:15:46;2.63;;;0.70;;
17382;SDS011;8809;51.892;8.384;2022-10-16T14:18:19;0.52;;;0.50;;
17382;SDS011;8809;51.892;8.384;2022-10-16T14:20:48;1.98;;;0.60;;
17382;SDS011;8809;51.892;8.384;2022-10-16T14:23:20;0.88;;;0.52;;
17382;SDS011;8809;51.892;8.384;2022-10-16T14:25:49;1.30;;;0.80;;
17382;SDS011;8809;51.892;8.384;2022-10-16T14:28:16;1.15;;;0.70;;
17382;SDS011;8809;51.892;8.384;2022-10-16T14:30:49;0.65;;;0.65;;
17382;SDS011;8809;51.892;8.384;2022-10-16T14:33:22;0.90;;;0.50;;
17382;SDS011;8809;51.892;8.384;2022-10-16T14:35:59;0.88;;;0.60;;
17382;SDS011;8809;51.892;8.384;2022-10-16T14:38:29;0.98;;;0.50;;
17382;SDS011;8809;51.892;8.384;2022-10-16T14:40:57;1.38;;;0.45;;
17382;SDS011;8809;51.892;8.384;2022-10-16T14:43:28;1.50;;;0.60;;
17382;SDS011;8809;51.892;8.384;2022-10-16T14:45:59;1.00;;;0.60;;
17382;SDS011;8809;51.892;8.384;2022-10-16T14:48:29;0.88;;;0.50;;
17382;SDS011;8809;51.892;8.384;2022-10-16T14:50:56;1.30;;;0.60;;
17382;SDS011;8809;51.892;8.384;2022-10-16T14:53:23;1.52;;;0.50;;
17382;SDS011;8809;51.892;8.384;2022-10-16T14:55:51;0.63;;;0.57;;
17382;SDS011;8809;51.892;8.384;2022-10-16T14:58:19;2.58;;;0.88;;
17382;SDS011;8809;51.892;8.384;2022-10-16T15:00:48;1.00;;;0.68;;
17382;SDS011;8809;51.892;8.384;2022-10-16T15:03:16;0.77;;;0.57;;
17382;SDS011;8809;51.892;8.384;2022-10-16T15:05:44;0.57;;;0.50;;
17382;SDS011;8809;51.892;8.384;2022-10-16T15:08:11;0.90;;;0.50;;
17382;SDS011;8809;51.892;8.384;2022-10-16T15:10:42;1.13;;;0.63;;
17382;SDS011;8809;51.892;8.384;2022-10-16T15:13:13;0.45;;;0.45;;
17382;SDS011;8809;51.892;8.384;2022-10-16T15:15:41;0.50;;;0.50;;
17382;SDS011;8809;51.892;8.384;2022-10-16T15:18:10;1.05;;;0.50;;
17382;SDS011;8809;51.892;8.384;2022-10-16T15:20:40;0.95;;;0.60;;
17382;SDS011;8809;51.892;8.384;2022-10-16T15:23:12;0.93;;;0.68;;
17382;SDS011;8809;51.892;8.384;2022-10-16T15:25:42;1.38;;;0.70;;
17382;SDS011;8809;51.892;8.384;2022-10-16T15:28:10;1.40;;;0.70;;